sensor_id;sensor_type;location;lat;lon;timestamp;P1;durP1;ratioP1;P2;durP2;ratioP2
50533;SDS011;60631;49.236;8.398;2022-07-24T00:01:33;4.25;;;3.90;;
50533;SDS011;60631;49.236;8.398;2022-07-24T00:04:34;4.53;;;4.13;;
50533;SDS011;60631;49.236;8.398;2022-07-24T00:07:36;4.40;;;4.00;;
50533;SDS011;60631;49.236;8.398;2022-07-24T00:10:37;4.90;;;4.10;;
50533;SDS011;60631;49.236;8.398;2022-07-24T00:13:38;6.18;;;4.25;;
50533;SDS011;60631;49.236;8.398;2022-07-24T00:16:39;4.75;;;4.25;;
50533;SDS011;60631;49.236;8.398;2022-07-24T00:19:40;4.30;;;4.00;;
50533;SDS011;60631;49.236;8.398;2022-07-24T00:22:41;5.10;;;4.40;;
50533;SDS011;60631;49.236;8.398;2022-07-24T00:25:42;5.10;;;4.53;;
50533;SDS011;60631;49.236;8.398;2022-07-24T00:28:43;4.38;;;4.00;;
50533;SDS011;60631;49.236;8.398;2022-07-24T00:31:44;6.60;;;4.43;;
50533;SDS011;60631;49.236;8.398;2022-07-24T00:34:45;4.70;;;4.30;;
50533;SDS011;60631;49.236;8.398;2022-07-24T00:37:47;5.00;;;4.50;;
50533;SDS011;60631;49.236;8.398;2022-07-24T00:40:48;5.80;;;4.43;;
50533;SDS011;60631;49.236;8.398;2022-07-24T00:43:58;6.07;;;4.50;;
50533;SDS011;60631;49.236;8.398;2022-07-24T00:47:00;4.82;;;4.10;;
50533;SDS011;60631;49.236;8.398;2022-07-24T00:50:01;4.60;;;4.20;;
50533;SDS011;60631;49.236;8.398;2022-07-24T00:53:04;4.87;;;4.30;;
50533;SDS011;60631;49.236;8.398;2022-07-24T00:56:05;5.35;;;4.63;;
50533;SDS011;60631;49.236;8.398;2022-07-24T00:59:07;5.72;;;5.22;;
50533;SDS011;60631;49.236;8.398;2022-07-24T01:02:08;5.38;;;4.95;;
50533;SDS011;60631;49.236;8.398;2022-07-24T01:05:09;5.60;;;4.90;;
50533;SDS011;60631;49.236;8.398;2022-07-24T01:08:10;5.32;;;4.82;;
50533;SDS011;60631;49.236;8.398;2022-07-24T01:11:11;5.18;;;4.68;;
50533;SDS011;60631;49.236;8.398;2022-07-24T01:14:12;6.78;;;5.35;;
50533;SDS011;60631;49.236;8.398;2022-07-24T01:17:14;6.15;;;5.10;;
50533;SDS011;60631;49.236;8.398;2022-07-24T01:20:15;5.15;;;4.72;;
50533;SDS011;60631;49.236;8.398;2022-07-24T01:23:16;5.03;;;4.57;;
50533;SDS011;60631;49.236;8.398;2022-07-24T01:26:17;5.20;;;4.70;;
50533;SDS011;60631;49.236;8.398;2022-07-24T01:29:18;5.68;;;5.18;;
50533;SDS011;60631;49.236;8.398;2022-07-24T01:32:19;5.50;;;5.00;;
50533;SDS011;60631;49.236;8.398;2022-07-24T01:35:20;5.78;;;5.10;;
50533;SDS011;60631;49.236;8.398;2022-07-24T01:38:21;5.43;;;5.00;;
50533;SDS011;60631;49.236;8.398;2022-07-24T01:41:22;5.30;;;4.80;;
50533;SDS011;60631;49.236;8.398;2022-07-24T01:44:23;5.50;;;5.07;;
50533;SDS011;60631;49.236;8.398;2022-07-24T01:47:24;5.80;;;5.30;;
50533;SDS011;60631;49.236;8.398;2022-07-24T01:50:25;6.55;;;4.90;;
50533;SDS011;60631;49.236;8.398;2022-07-24T01:53:26;5.43;;;4.90;;
50533;SDS011;60631;49.236;8.398;2022-07-24T01:56:31;5.28;;;4.88;;
50533;SDS011;60631;49.236;8.398;2022-07-24T01:59:33;5.72;;;5.13;;
50533;SDS011;60631;49.236;8.398;2022-07-24T02:02:34;5.63;;;5.13;;
50533;SDS011;60631;49.236;8.398;2022-07-24T02:05:35;5.47;;;4.97;;
50533;SDS011;60631;49.236;8.398;2022-07-24T02:08:36;5.57;;;5.05;;
50533;SDS011;60631;49.236;8.398;2022-07-24T02:11:37;5.22;;;4.72;;
50533;SDS011;60631;49.236;8.398;2022-07-24T02:14:38;5.70;;;5.10;;
50533;SDS011;60631;49.236;8.398;2022-07-24T02:17:39;5.60;;;5.10;;
50533;SDS011;60631;49.236;8.398;2022-07-24T02:20:46;7.22;;;5.00;;
50533;SDS011;60631;49.236;8.398;2022-07-24T02:23:47;7.70;;;4.95;;
50533;SDS011;60631;49.236;8.398;2022-07-24T02:26:48;7.00;;;5.18;;
50533;SDS011;60631;49.236;8.398;2022-07-24T02:29:49;5.38;;;4.88;;
50533;SDS011;60631;49.236;8.398;2022-07-24T02:32:50;5.22;;;4.72;;
50533;SDS011;60631;49.236;8.398;2022-07-24T02:35:52;5.45;;;4.95;;
50533;SDS011;60631;49.236;8.398;2022-07-24T02:38:53;5.22;;;4.72;;
50533;SDS011;60631;49.236;8.398;2022-07-24T02:41:54;5.10;;;4.70;;
50533;SDS011;60631;49.236;8.398;2022-07-24T02:44:55;4.90;;;4.47;;
50533;SDS011;60631;49.236;8.398;2022-07-24T02:47:57;5.03;;;4.18;;
50533;SDS011;60631;49.236;8.398;2022-07-24T02:50:58;5.68;;;4.80;;
50533;SDS011;60631;49.236;8.398;2022-07-24T02:53:59;5.30;;;4.80;;
50533;SDS011;60631;49.236;8.398;2022-07-24T02:57:00;4.93;;;4.53;;
50533;SDS011;60631;49.236;8.398;2022-07-24T03:00:05;4.90;;;4.32;;
50533;SDS011;60631;49.236;8.398;2022-07-24T03:03:09;5.20;;;4.70;;
50533;SDS011;60631;49.236;8.398;2022-07-24T03:06:10;5.22;;;4.72;;
50533;SDS011;60631;49.236;8.398;2022-07-24T03:09:11;7.05;;;4.53;;
50533;SDS011;60631;49.236;8.398;2022-07-24T03:12:12;5.28;;;4.88;;
50533;SDS011;60631;49.236;8.398;2022-07-24T03:15:13;5.10;;;4.70;;
50533;SDS011;60631;49.236;8.398;2022-07-24T03:18:14;7.93;;;5.07;;
50533;SDS011;60631;49.236;8.398;2022-07-24T03:21:16;5.70;;;5.10;;
50533;SDS011;60631;49.236;8.398;2022-07-24T03:24:17;5.95;;;5.35;;
50533;SDS011;60631;49.236;8.398;2022-07-24T03:27:18;5.30;;;4.80;;
50533;SDS011;60631;49.236;8.398;2022-07-24T03:30:20;5.82;;;4.63;;
50533;SDS011;60631;49.236;8.398;2022-07-24T03:33:21;6.80;;;4.93;;
50533;SDS011;60631;49.236;8.398;2022-07-24T03:36:22;5.95;;;5.15;;
50533;SDS011;60631;49.236;8.398;2022-07-24T03:39:23;5.13;;;4.72;;
50533;SDS011;60631;49.236;8.398;2022-07-24T03:42:24;5.13;;;4.35;;
50533;SDS011;60631;49.236;8.398;2022-07-24T03:45:25;5.38;;;4.90;;
50533;SDS011;60631;49.236;8.398;2022-07-24T03:48:26;6.55;;;4.72;;
50533;SDS011;60631;49.236;8.398;2022-07-24T03:51:27;5.40;;;4.75;;
50533;SDS011;60631;49.236;8.398;2022-07-24T03:54:28;6.85;;;4.90;;
50533;SDS011;60631;49.236;8.398;2022-07-24T03:57:29;5.28;;;4.70;;
50533;SDS011;60631;49.236;8.398;2022-07-24T04:00:31;5.15;;;4.50;;
50533;SDS011;60631;49.236;8.398;2022-07-24T04:03:32;5.25;;;4.63;;
50533;SDS011;60631;49.236;8.398;2022-07-24T04:06:33;5.50;;;5.00;;
50533;SDS011;60631;49.236;8.398;2022-07-24T04:09:34;4.68;;;4.28;;
50533;SDS011;60631;49.236;8.398;2022-07-24T04:12:35;4.90;;;4.40;;
50533;SDS011;60631;49.236;8.398;2022-07-24T04:15:36;4.85;;;4.38;;
50533;SDS011;60631;49.236;8.398;2022-07-24T04:18:37;4.88;;;4.45;;
50533;SDS011;60631;49.236;8.398;2022-07-24T04:21:38;4.95;;;4.30;;
50533;SDS011;60631;49.236;8.398;2022-07-24T04:24:40;5.53;;;4.65;;
50533;SDS011;60631;49.236;8.398;2022-07-24T04:27:41;7.38;;;4.95;;
50533;SDS011;60631;49.236;8.398;2022-07-24T04:30:44;4.88;;;4.38;;
50533;SDS011;60631;49.236;8.398;2022-07-24T04:33:45;6.53;;;5.22;;
50533;SDS011;60631;49.236;8.398;2022-07-24T04:36:46;5.47;;;4.88;;
50533;SDS011;60631;49.236;8.398;2022-07-24T04:39:47;5.35;;;4.85;;
50533;SDS011;60631;49.236;8.398;2022-07-24T04:42:48;5.03;;;4.63;;
50533;SDS011;60631;49.236;8.398;2022-07-24T04:45:49;5.65;;;4.88;;
50533;SDS011;60631;49.236;8.398;2022-07-24T04:48:50;9.75;;;5.05;;
50533;SDS011;60631;49.236;8.398;2022-07-24T04:51:51;9.80;;;5.50;;
50533;SDS011;60631;49.236;8.398;2022-07-24T04:54:52;6.07;;;5.05;;
50533;SDS011;60631;49.236;8.398;2022-07-24T04:57:53;5.28;;;4.78;;
50533;SDS011;60631;49.236;8.398;2022-07-24T05:00:55;4.95;;;4.47;;
50533;SDS011;60631;49.236;8.398;2022-07-24T05:03:56;9.40;;;5.15;;
50533;SDS011;60631;49.236;8.398;2022-07-24T05:06:59;8.13;;;5.07;;
50533;SDS011;60631;49.236;8.398;2022-07-24T05:10:00;4.97;;;4.40;;
50533;SDS011;60631;49.236;8.398;2022-07-24T05:13:01;4.80;;;4.40;;
50533;SDS011;60631;49.236;8.398;2022-07-24T05:16:02;4.95;;;4.55;;
50533;SDS011;60631;49.236;8.398;2022-07-24T05:19:03;5.43;;;4.93;;
50533;SDS011;60631;49.236;8.398;2022-07-24T05:22:04;4.85;;;4.45;;
50533;SDS011;60631;49.236;8.398;2022-07-24T05:25:05;5.72;;;4.57;;
50533;SDS011;60631;49.236;8.398;2022-07-24T05:28:07;7.28;;;5.28;;
50533;SDS011;60631;49.236;8.398;2022-07-24T05:31:08;4.85;;;4.45;;
50533;SDS011;60631;49.236;8.398;2022-07-24T05:34:09;4.93;;;4.53;;
50533;SDS011;60631;49.236;8.398;2022-07-24T05:37:10;5.00;;;4.60;;
50533;SDS011;60631;49.236;8.398;2022-07-24T05:40:11;5.22;;;4.65;;
50533;SDS011;60631;49.236;8.398;2022-07-24T05:43:12;5.00;;;4.13;;
50533;SDS011;60631;49.236;8.398;2022-07-24T05:46:14;4.90;;;4.30;;
50533;SDS011;60631;49.236;8.398;2022-07-24T05:49:15;4.80;;;4.40;;
50533;SDS011;60631;49.236;8.398;2022-07-24T05:52:16;5.45;;;4.38;;
50533;SDS011;60631;49.236;8.398;2022-07-24T05:55:17;5.10;;;4.25;;
50533;SDS011;60631;49.236;8.398;2022-07-24T05:58:18;4.70;;;4.30;;
50533;SDS011;60631;49.236;8.398;2022-07-24T06:01:19;4.88;;;4.45;;
50533;SDS011;60631;49.236;8.398;2022-07-24T06:04:20;5.82;;;4.78;;
50533;SDS011;60631;49.236;8.398;2022-07-24T06:07:21;6.07;;;4.70;;
50533;SDS011;60631;49.236;8.398;2022-07-24T06:10:22;5.20;;;4.65;;
50533;SDS011;60631;49.236;8.398;2022-07-24T06:13:23;5.03;;;4.60;;
50533;SDS011;60631;49.236;8.398;2022-07-24T06:16:24;5.05;;;4.65;;
50533;SDS011;60631;49.236;8.398;2022-07-24T06:19:25;4.90;;;4.43;;
50533;SDS011;60631;49.236;8.398;2022-07-24T06:22:26;5.72;;;5.20;;
50533;SDS011;60631;49.236;8.398;2022-07-24T06:25:27;4.78;;;4.40;;
50533;SDS011;60631;49.236;8.398;2022-07-24T06:28:28;10.95;;;5.00;;
50533;SDS011;60631;49.236;8.398;2022-07-24T06:31:30;5.75;;;5.03;;
50533;SDS011;60631;49.236;8.398;2022-07-24T06:34:31;5.95;;;5.40;;
50533;SDS011;60631;49.236;8.398;2022-07-24T06:37:32;5.95;;;5.10;;
50533;SDS011;60631;49.236;8.398;2022-07-24T06:40:33;6.13;;;5.10;;
50533;SDS011;60631;49.236;8.398;2022-07-24T06:43:35;5.72;;;5.22;;
50533;SDS011;60631;49.236;8.398;2022-07-24T06:46:36;6.43;;;5.63;;
50533;SDS011;60631;49.236;8.398;2022-07-24T06:49:37;5.97;;;5.38;;
50533;SDS011;60631;49.236;8.398;2022-07-24T06:52:38;6.75;;;6.20;;
50533;SDS011;60631;49.236;8.398;2022-07-24T06:55:39;6.25;;;5.65;;
50533;SDS011;60631;49.236;8.398;2022-07-24T06:58:40;6.57;;;5.97;;
50533;SDS011;60631;49.236;8.398;2022-07-24T07:01:41;7.35;;;5.90;;
50533;SDS011;60631;49.236;8.398;2022-07-24T07:04:43;5.93;;;5.38;;
50533;SDS011;60631;49.236;8.398;2022-07-24T07:07:44;6.70;;;6.10;;
50533;SDS011;60631;49.236;8.398;2022-07-24T07:10:45;7.55;;;6.75;;
50533;SDS011;60631;49.236;8.398;2022-07-24T07:13:46;6.45;;;5.93;;
50533;SDS011;60631;49.236;8.398;2022-07-24T07:16:47;7.32;;;6.63;;
50533;SDS011;60631;49.236;8.398;2022-07-24T07:19:48;6.93;;;6.30;;
50533;SDS011;60631;49.236;8.398;2022-07-24T07:22:49;6.30;;;5.80;;
50533;SDS011;60631;49.236;8.398;2022-07-24T07:25:50;7.32;;;6.07;;
50533;SDS011;60631;49.236;8.398;2022-07-24T07:28:51;6.75;;;6.15;;
50533;SDS011;60631;49.236;8.398;2022-07-24T07:31:53;6.82;;;6.20;;
50533;SDS011;60631;49.236;8.398;2022-07-24T07:34:54;7.22;;;5.97;;
50533;SDS011;60631;49.236;8.398;2022-07-24T07:37:55;7.00;;;6.40;;
50533;SDS011;60631;49.236;8.398;2022-07-24T07:44:21;6.90;;;6.30;;
50533;SDS011;60631;49.236;8.398;2022-07-24T07:47:22;6.93;;;6.22;;
50533;SDS011;60631;49.236;8.398;2022-07-24T07:50:23;6.70;;;6.00;;
50533;SDS011;60631;49.236;8.398;2022-07-24T07:53:24;6.90;;;6.30;;
50533;SDS011;60631;49.236;8.398;2022-07-24T07:56:26;8.13;;;6.40;;
50533;SDS011;60631;49.236;8.398;2022-07-24T07:59:29;7.32;;;6.63;;
50533;SDS011;60631;49.236;8.398;2022-07-24T08:02:30;6.93;;;6.25;;
50533;SDS011;60631;49.236;8.398;2022-07-24T08:05:31;6.88;;;6.32;;
50533;SDS011;60631;49.236;8.398;2022-07-24T08:08:32;6.70;;;6.10;;
50533;SDS011;60631;49.236;8.398;2022-07-24T08:11:33;7.60;;;6.90;;
50533;SDS011;60631;49.236;8.398;2022-07-24T08:14:34;6.88;;;6.28;;
50533;SDS011;60631;49.236;8.398;2022-07-24T08:17:35;7.40;;;6.70;;
50533;SDS011;60631;49.236;8.398;2022-07-24T08:20:36;7.57;;;6.43;;
50533;SDS011;60631;49.236;8.398;2022-07-24T08:23:37;6.95;;;6.40;;
50533;SDS011;60631;49.236;8.398;2022-07-24T08:26:38;7.38;;;6.65;;
50533;SDS011;60631;49.236;8.398;2022-07-24T08:29:39;7.50;;;6.75;;
50533;SDS011;60631;49.236;8.398;2022-07-24T08:32:40;6.50;;;5.90;;
50533;SDS011;60631;49.236;8.398;2022-07-24T08:35:41;6.75;;;6.25;;
50533;SDS011;60631;49.236;8.398;2022-07-24T08:38:42;6.97;;;6.25;;
50533;SDS011;60631;49.236;8.398;2022-07-24T08:41:43;7.70;;;6.70;;
50533;SDS011;60631;49.236;8.398;2022-07-24T08:44:45;7.07;;;6.45;;
50533;SDS011;60631;49.236;8.398;2022-07-24T08:47:46;7.25;;;6.65;;
50533;SDS011;60631;49.236;8.398;2022-07-24T08:50:47;6.70;;;6.10;;
50533;SDS011;60631;49.236;8.398;2022-07-24T08:53:48;7.28;;;6.57;;
50533;SDS011;60631;49.236;8.398;2022-07-24T08:56:50;6.60;;;5.97;;
50533;SDS011;60631;49.236;8.398;2022-07-24T08:59:51;6.82;;;6.30;;
50533;SDS011;60631;49.236;8.398;2022-07-24T09:02:52;6.80;;;6.20;;
50533;SDS011;60631;49.236;8.398;2022-07-24T09:05:57;6.40;;;5.90;;
50533;SDS011;60631;49.236;8.398;2022-07-24T09:09:00;6.90;;;6.18;;
50533;SDS011;60631;49.236;8.398;2022-07-24T09:12:11;6.10;;;5.60;;
50533;SDS011;60631;49.236;8.398;2022-07-24T09:15:17;7.20;;;6.60;;
50533;SDS011;60631;49.236;8.398;2022-07-24T09:18:25;6.82;;;6.32;;
50533;SDS011;60631;49.236;8.398;2022-07-24T09:21:27;6.97;;;6.35;;
50533;SDS011;60631;49.236;8.398;2022-07-24T09:24:28;6.85;;;6.18;;
50533;SDS011;60631;49.236;8.398;2022-07-24T09:27:29;6.68;;;6.05;;
50533;SDS011;60631;49.236;8.398;2022-07-24T09:30:33;7.15;;;6.55;;
50533;SDS011;60631;49.236;8.398;2022-07-24T09:33:37;6.20;;;5.70;;
50533;SDS011;60631;49.236;8.398;2022-07-24T09:36:38;6.85;;;6.25;;
50533;SDS011;60631;49.236;8.398;2022-07-24T09:39:39;6.35;;;5.82;;
50533;SDS011;60631;49.236;8.398;2022-07-24T09:42:41;6.70;;;6.10;;
50533;SDS011;60631;49.236;8.398;2022-07-24T09:48:59;6.47;;;5.88;;
50533;SDS011;60631;49.236;8.398;2022-07-24T09:55:21;7.05;;;5.68;;
50533;SDS011;60631;49.236;8.398;2022-07-24T09:58:24;6.45;;;5.75;;
50533;SDS011;60631;49.236;8.398;2022-07-24T10:01:26;6.25;;;5.75;;
50533;SDS011;60631;49.236;8.398;2022-07-24T10:04:28;5.70;;;5.30;;
50533;SDS011;60631;49.236;8.398;2022-07-24T10:07:31;6.07;;;5.47;;
50533;SDS011;60631;49.236;8.398;2022-07-24T10:10:33;5.90;;;5.28;;
50533;SDS011;60631;49.236;8.398;2022-07-24T10:13:34;6.03;;;5.47;;
50533;SDS011;60631;49.236;8.398;2022-07-24T10:16:36;6.20;;;5.60;;
50533;SDS011;60631;49.236;8.398;2022-07-24T10:19:47;5.70;;;5.20;;
50533;SDS011;60631;49.236;8.398;2022-07-24T10:23:03;5.32;;;4.93;;
50533;SDS011;60631;49.236;8.398;2022-07-24T10:26:06;5.88;;;5.20;;
50533;SDS011;60631;49.236;8.398;2022-07-24T10:29:15;5.57;;;5.07;;
50533;SDS011;60631;49.236;8.398;2022-07-24T10:32:17;5.40;;;5.00;;
50533;SDS011;60631;49.236;8.398;2022-07-24T10:35:23;5.75;;;5.07;;
50533;SDS011;60631;49.236;8.398;2022-07-24T10:38:29;5.88;;;5.35;;
50533;SDS011;60631;49.236;8.398;2022-07-24T10:41:34;5.50;;;5.00;;
50533;SDS011;60631;49.236;8.398;2022-07-24T10:44:36;5.50;;;5.00;;
50533;SDS011;60631;49.236;8.398;2022-07-24T10:47:37;5.30;;;4.90;;
50533;SDS011;60631;49.236;8.398;2022-07-24T10:53:57;5.15;;;4.75;;
50533;SDS011;60631;49.236;8.398;2022-07-24T10:56:58;5.43;;;4.75;;
50533;SDS011;60631;49.236;8.398;2022-07-24T10:59:59;5.57;;;5.10;;
50533;SDS011;60631;49.236;8.398;2022-07-24T11:03:25;5.38;;;4.90;;
50533;SDS011;60631;49.236;8.398;2022-07-24T11:13:38;5.03;;;4.63;;
50533;SDS011;60631;49.236;8.398;2022-07-24T11:16:34;5.30;;;4.80;;
50533;SDS011;60631;49.236;8.398;2022-07-24T11:19:35;5.43;;;4.65;;
50533;SDS011;60631;49.236;8.398;2022-07-24T11:22:42;4.80;;;4.40;;
50533;SDS011;60631;49.236;8.398;2022-07-24T11:25:43;4.57;;;4.18;;
50533;SDS011;60631;49.236;8.398;2022-07-24T11:29:09;4.80;;;4.43;;
50533;SDS011;60631;49.236;8.398;2022-07-24T11:32:11;5.30;;;4.90;;
50533;SDS011;60631;49.236;8.398;2022-07-24T11:35:28;4.57;;;4.18;;
50533;SDS011;60631;49.236;8.398;2022-07-24T11:38:36;4.78;;;4.32;;
50533;SDS011;60631;49.236;8.398;2022-07-24T11:41:50;4.72;;;4.30;;
50533;SDS011;60631;49.236;8.398;2022-07-24T11:44:55;4.95;;;4.45;;
50533;SDS011;60631;49.236;8.398;2022-07-24T11:47:56;4.85;;;4.45;;
50533;SDS011;60631;49.236;8.398;2022-07-24T11:51:04;4.82;;;4.43;;
50533;SDS011;60631;49.236;8.398;2022-07-24T11:54:06;5.38;;;4.90;;
50533;SDS011;60631;49.236;8.398;2022-07-24T11:57:15;5.25;;;4.55;;
50533;SDS011;60631;49.236;8.398;2022-07-24T12:00:36;5.00;;;4.60;;
50533;SDS011;60631;49.236;8.398;2022-07-24T12:03:47;5.03;;;4.63;;
50533;SDS011;60631;49.236;8.398;2022-07-24T12:06:51;5.68;;;4.93;;
50533;SDS011;60631;49.236;8.398;2022-07-24T12:10:02;4.75;;;4.43;;
50533;SDS011;60631;49.236;8.398;2022-07-24T12:13:04;5.60;;;4.60;;
50533;SDS011;60631;49.236;8.398;2022-07-24T12:16:05;5.13;;;4.65;;
50533;SDS011;60631;49.236;8.398;2022-07-24T12:19:19;4.65;;;4.25;;
50533;SDS011;60631;49.236;8.398;2022-07-24T12:22:23;4.93;;;4.45;;
50533;SDS011;60631;49.236;8.398;2022-07-24T12:25:25;4.77;;;4.33;;
50533;SDS011;60631;49.236;8.398;2022-07-24T12:28:27;4.85;;;4.45;;
50533;SDS011;60631;49.236;8.398;2022-07-24T12:31:28;4.38;;;4.05;;
50533;SDS011;60631;49.236;8.398;2022-07-24T12:34:45;4.07;;;3.78;;
50533;SDS011;60631;49.236;8.398;2022-07-24T12:37:47;3.70;;;3.47;;
50533;SDS011;60631;49.236;8.398;2022-07-24T12:40:48;3.78;;;3.47;;
50533;SDS011;60631;49.236;8.398;2022-07-24T12:46:55;4.22;;;3.85;;
50533;SDS011;60631;49.236;8.398;2022-07-24T12:49:58;4.13;;;3.72;;
50533;SDS011;60631;49.236;8.398;2022-07-24T12:53:05;4.07;;;3.67;;
50533;SDS011;60631;49.236;8.398;2022-07-24T12:56:14;3.42;;;3.10;;
50533;SDS011;60631;49.236;8.398;2022-07-24T12:59:29;3.42;;;3.13;;
50533;SDS011;60631;49.236;8.398;2022-07-24T13:02:31;3.67;;;3.38;;
50533;SDS011;60631;49.236;8.398;2022-07-24T13:05:36;3.90;;;3.60;;
50533;SDS011;60631;49.236;8.398;2022-07-24T13:08:41;3.20;;;2.95;;
50533;SDS011;60631;49.236;8.398;2022-07-24T13:11:42;3.20;;;3.00;;
50533;SDS011;60631;49.236;8.398;2022-07-24T13:14:44;3.53;;;3.22;;
50533;SDS011;60631;49.236;8.398;2022-07-24T13:17:46;3.65;;;3.35;;
50533;SDS011;60631;49.236;8.398;2022-07-24T13:20:47;3.40;;;3.20;;
50533;SDS011;60631;49.236;8.398;2022-07-24T13:23:48;3.70;;;3.40;;
50533;SDS011;60631;49.236;8.398;2022-07-24T13:26:49;3.30;;;3.03;;
50533;SDS011;60631;49.236;8.398;2022-07-24T13:29:51;2.83;;;2.63;;
50533;SDS011;60631;49.236;8.398;2022-07-24T13:32:52;2.80;;;2.60;;
50533;SDS011;60631;49.236;8.398;2022-07-24T13:35:53;3.20;;;2.90;;
50533;SDS011;60631;49.236;8.398;2022-07-24T13:38:54;2.88;;;2.67;;
50533;SDS011;60631;49.236;8.398;2022-07-24T13:41:55;3.35;;;2.83;;
50533;SDS011;60631;49.236;8.398;2022-07-24T13:44:56;2.88;;;2.65;;
50533;SDS011;60631;49.236;8.398;2022-07-24T13:47:57;2.58;;;2.47;;
50533;SDS011;60631;49.236;8.398;2022-07-24T13:50:58;2.70;;;2.50;;
50533;SDS011;60631;49.236;8.398;2022-07-24T13:53:59;2.60;;;2.40;;
50533;SDS011;60631;49.236;8.398;2022-07-24T13:57:01;2.77;;;2.50;;
50533;SDS011;60631;49.236;8.398;2022-07-24T14:00:04;3.10;;;2.60;;
50533;SDS011;60631;49.236;8.398;2022-07-24T14:03:06;2.50;;;2.30;;
50533;SDS011;60631;49.236;8.398;2022-07-24T14:06:08;2.78;;;2.58;;
50533;SDS011;60631;49.236;8.398;2022-07-24T14:09:09;2.50;;;2.30;;
50533;SDS011;60631;49.236;8.398;2022-07-24T14:12:10;2.83;;;2.63;;
50533;SDS011;60631;49.236;8.398;2022-07-24T14:15:12;2.28;;;2.17;;
50533;SDS011;60631;49.236;8.398;2022-07-24T14:18:13;2.83;;;2.63;;
50533;SDS011;60631;49.236;8.398;2022-07-24T14:21:14;2.60;;;2.40;;
50533;SDS011;60631;49.236;8.398;2022-07-24T14:24:16;2.53;;;2.33;;
50533;SDS011;60631;49.236;8.398;2022-07-24T14:27:18;2.90;;;2.55;;
50533;SDS011;60631;49.236;8.398;2022-07-24T14:30:19;2.50;;;2.30;;
50533;SDS011;60631;49.236;8.398;2022-07-24T14:33:21;2.87;;;2.63;;
50533;SDS011;60631;49.236;8.398;2022-07-24T14:36:22;2.65;;;2.45;;
50533;SDS011;60631;49.236;8.398;2022-07-24T14:39:23;2.80;;;2.60;;
50533;SDS011;60631;49.236;8.398;2022-07-24T14:42:25;2.58;;;2.38;;
50533;SDS011;60631;49.236;8.398;2022-07-24T14:45:26;2.77;;;2.57;;
50533;SDS011;60631;49.236;8.398;2022-07-24T14:48:27;2.43;;;2.23;;
50533;SDS011;60631;49.236;8.398;2022-07-24T14:51:28;2.53;;;2.30;;
50533;SDS011;60631;49.236;8.398;2022-07-24T14:54:29;3.05;;;2.33;;
50533;SDS011;60631;49.236;8.398;2022-07-24T14:57:30;2.47;;;2.35;;
50533;SDS011;60631;49.236;8.398;2022-07-24T15:00:31;2.10;;;2.00;;
50533;SDS011;60631;49.236;8.398;2022-07-24T15:03:32;2.40;;;2.30;;
50533;SDS011;60631;49.236;8.398;2022-07-24T15:06:33;2.33;;;2.22;;
50533;SDS011;60631;49.236;8.398;2022-07-24T15:12:35;2.50;;;2.40;;
50533;SDS011;60631;49.236;8.398;2022-07-24T15:15:36;2.47;;;2.30;;
50533;SDS011;60631;49.236;8.398;2022-07-24T15:18:37;2.95;;;2.75;;
50533;SDS011;60631;49.236;8.398;2022-07-24T15:21:39;2.60;;;2.40;;
50533;SDS011;60631;49.236;8.398;2022-07-24T15:24:40;2.63;;;2.15;;
50533;SDS011;60631;49.236;8.398;2022-07-24T15:27:41;2.50;;;2.30;;
50533;SDS011;60631;49.236;8.398;2022-07-24T15:30:42;2.45;;;2.35;;
50533;SDS011;60631;49.236;8.398;2022-07-24T15:33:43;2.80;;;2.60;;
50533;SDS011;60631;49.236;8.398;2022-07-24T15:36:44;2.65;;;2.28;;
50533;SDS011;60631;49.236;8.398;2022-07-24T15:39:45;3.30;;;2.75;;
50533;SDS011;60631;49.236;8.398;2022-07-24T15:42:46;2.53;;;2.33;;
50533;SDS011;60631;49.236;8.398;2022-07-24T15:45:48;2.22;;;2.10;;
50533;SDS011;60631;49.236;8.398;2022-07-24T15:48:49;2.60;;;2.38;;
50533;SDS011;60631;49.236;8.398;2022-07-24T15:51:50;2.60;;;2.50;;
50533;SDS011;60631;49.236;8.398;2022-07-24T15:54:51;2.80;;;2.60;;
50533;SDS011;60631;49.236;8.398;2022-07-24T15:57:52;2.58;;;2.47;;
50533;SDS011;60631;49.236;8.398;2022-07-24T16:03:54;3.15;;;2.88;;
50533;SDS011;60631;49.236;8.398;2022-07-24T16:06:55;3.25;;;2.78;;
50533;SDS011;60631;49.236;8.398;2022-07-24T16:09:56;2.80;;;2.60;;
50533;SDS011;60631;49.236;8.398;2022-07-24T16:12:58;2.70;;;2.50;;
50533;SDS011;60631;49.236;8.398;2022-07-24T16:16:00;2.60;;;2.40;;
50533;SDS011;60631;49.236;8.398;2022-07-24T16:19:01;3.15;;;2.70;;
50533;SDS011;60631;49.236;8.398;2022-07-24T16:22:02;2.63;;;2.42;;
50533;SDS011;60631;49.236;8.398;2022-07-24T16:25:04;3.00;;;2.70;;
50533;SDS011;60631;49.236;8.398;2022-07-24T16:28:06;3.72;;;2.80;;
50533;SDS011;60631;49.236;8.398;2022-07-24T16:31:07;2.90;;;2.70;;
50533;SDS011;60631;49.236;8.398;2022-07-24T16:34:08;2.65;;;2.55;;
50533;SDS011;60631;49.236;8.398;2022-07-24T16:37:09;3.35;;;3.05;;
50533;SDS011;60631;49.236;8.398;2022-07-24T16:40:10;2.65;;;2.50;;
50533;SDS011;60631;49.236;8.398;2022-07-24T16:43:11;3.33;;;3.08;;
50533;SDS011;60631;49.236;8.398;2022-07-24T16:46:12;2.87;;;2.50;;
50533;SDS011;60631;49.236;8.398;2022-07-24T16:49:14;3.00;;;2.80;;
50533;SDS011;60631;49.236;8.398;2022-07-24T16:52:15;2.67;;;2.57;;
50533;SDS011;60631;49.236;8.398;2022-07-24T16:55:16;3.10;;;2.90;;
50533;SDS011;60631;49.236;8.398;2022-07-24T16:58:17;3.10;;;2.90;;
50533;SDS011;60631;49.236;8.398;2022-07-24T17:01:18;3.50;;;3.20;;
50533;SDS011;60631;49.236;8.398;2022-07-24T17:04:19;3.17;;;2.97;;
50533;SDS011;60631;49.236;8.398;2022-07-24T17:07:20;3.22;;;2.90;;
50533;SDS011;60631;49.236;8.398;2022-07-24T17:10:21;3.03;;;2.83;;
50533;SDS011;60631;49.236;8.398;2022-07-24T17:13:23;3.17;;;2.97;;
50533;SDS011;60631;49.236;8.398;2022-07-24T17:16:24;3.40;;;3.10;;
50533;SDS011;60631;49.236;8.398;2022-07-24T17:19:25;3.17;;;2.97;;
50533;SDS011;60631;49.236;8.398;2022-07-24T17:22:29;3.53;;;3.33;;
50533;SDS011;60631;49.236;8.398;2022-07-24T17:25:30;3.80;;;3.50;;
50533;SDS011;60631;49.236;8.398;2022-07-24T17:28:33;3.47;;;3.28;;
50533;SDS011;60631;49.236;8.398;2022-07-24T17:31:34;3.67;;;3.33;;
50533;SDS011;60631;49.236;8.398;2022-07-24T17:34:35;3.58;;;3.38;;
50533;SDS011;60631;49.236;8.398;2022-07-24T17:37:36;3.65;;;3.35;;
50533;SDS011;60631;49.236;8.398;2022-07-24T17:40:37;3.80;;;3.50;;
50533;SDS011;60631;49.236;8.398;2022-07-24T17:43:39;4.00;;;3.70;;
50533;SDS011;60631;49.236;8.398;2022-07-24T17:46:40;3.72;;;3.50;;
50533;SDS011;60631;49.236;8.398;2022-07-24T17:49:41;4.00;;;3.55;;
50533;SDS011;60631;49.236;8.398;2022-07-24T17:52:43;3.85;;;3.53;;
50533;SDS011;60631;49.236;8.398;2022-07-24T17:55:44;3.42;;;3.10;;
50533;SDS011;60631;49.236;8.398;2022-07-24T17:58:45;4.15;;;3.75;;
50533;SDS011;60631;49.236;8.398;2022-07-24T18:01:46;3.88;;;3.50;;
50533;SDS011;60631;49.236;8.398;2022-07-24T18:04:47;3.95;;;3.55;;
50533;SDS011;60631;49.236;8.398;2022-07-24T18:07:48;3.70;;;3.38;;
50533;SDS011;60631;49.236;8.398;2022-07-24T18:10:49;3.97;;;3.47;;
50533;SDS011;60631;49.236;8.398;2022-07-24T18:13:50;4.00;;;3.65;;
50533;SDS011;60631;49.236;8.398;2022-07-24T18:16:52;3.90;;;3.60;;
50533;SDS011;60631;49.236;8.398;2022-07-24T18:19:53;4.00;;;3.60;;
50533;SDS011;60631;49.236;8.398;2022-07-24T18:22:54;4.03;;;3.72;;
50533;SDS011;60631;49.236;8.398;2022-07-24T18:25:56;4.30;;;4.00;;
50533;SDS011;60631;49.236;8.398;2022-07-24T18:28:57;3.90;;;3.60;;
50533;SDS011;60631;49.236;8.398;2022-07-24T18:31:59;4.07;;;3.75;;
50533;SDS011;60631;49.236;8.398;2022-07-24T18:35:00;5.25;;;3.80;;
50533;SDS011;60631;49.236;8.398;2022-07-24T18:38:01;5.28;;;3.78;;
50533;SDS011;60631;49.236;8.398;2022-07-24T18:41:02;4.43;;;4.00;;
50533;SDS011;60631;49.236;8.398;2022-07-24T18:44:03;4.82;;;4.32;;
50533;SDS011;60631;49.236;8.398;2022-07-24T18:47:04;4.88;;;4.20;;